Gorgan, Iran
Current Conditions -  °F | °C
As of 8:00 AM on Saturday 29 Nov 2014 (Local Time) from OING Reporting Station
Light Rain Light Rain  
Wind Chill: 10°   Ceiling: 7000
Heat Index: 10°   Visibility: 1.5mi
Dew Point: 10°   Wind: 0mph
Humidity: 100%   Direction: NA
Pressure: 30.3"   Gusts: NA
Location:  36.83°N, 54.48°E
Report Text: OING 290500Z 00000KT 2500 -RA BR SCT025 OVC070 10/10 Q1026
Loading
Personal Weather Stations






























Interactive Weather Map New forecast layout! Learn more

10-Day Weather Forecast

Advertisements
Track Severe Weather on mobile